Weather observations for the past three days for
Platteville Municipal Airport
Imperial (Metric)
Date Time (cdt) Wind (mph) Vis. (mi.) Weather Sky Cond. Temperature (ºF) Relative Humidity Wind Chill (°F) Heat Index (°F) Pressure Precipitation (in)
Air Dwpt 6 hour altimeter (in) sea level (mb) 1 hr 3 hr 6 hr
Max. Min.
06 03:15 Calm 10.00 Fair CLR 35.8 24.3 63% 29.91 0.0
06 02:55 Calm 10.00 Fair CLR 37.4 22.8 56% 29.9 0.0
06 02:35 Calm 10.00 Fair CLR 39.2 22.6 52% 29.89 0.0
06 02:15 Calm 10.00 Fair CLR 40.3 21.6 47% 29.89 0.0
06 01:55 Calm 10.00 Fair CLR 41.4 21.2 45% 29.89 0.0
06 01:35 Calm 10.00 Fair CLR 41.9 20.8 43% 29.89 0.0
06 01:15 Calm 10.00 Fair CLR 42.1 21.2 43% 29.89 0.0
06 00:55 Calm 10.00 Fair CLR 42.1 21.9 52.7 41.9 45% 29.9 0.0
06 00:35 Calm 10.00 Fair CLR 42.8 22.3 44% 29.89 0.0
06 00:15 Calm 10.00 Fair CLR 42.8 22.1 44% 29.89 0.0
05 23:55 Calm 10.00 Fair CLR 42.8 22.1 44% 29.88 0.0
05 23:30 Calm 10.00 Fair CLR 43.7 21.4 41% 29.88 0.0
05 23:15 Calm 10.00 Fair CLR 44.8 20.5 38% 29.88 0.0
05 22:55 Calm 10.00 Fair CLR 45 20.1 37% 29.88 0.0
05 22:35 Calm 10.00 Fair CLR 45 20.7 38% 29.88 0.0
05 22:15 Calm 10.00 Fair CLR 45.5 21 38% 29.87 0.0
05 21:35 N 6 10.00 Fair CLR 46.8 22.3 38% 44 29.87 0.0
05 21:15 N 8 10.00 Fair CLR 47.5 21.4 36% 44 29.86 0.0
05 20:55 N 8 10.00 Fair CLR 48.4 21.6 35% 45 29.85 0.0
05 20:35 NW 7 10.00 Fair CLR 48.6 21.2 34% 46 29.84 0.0
05 20:15 N 9 G 16 10.00 Fair CLR 49.6 19.9 31% 46 29.83 0.0
05 19:55 N 10 10.00 Fair CLR 50.4 20.3 31% 29.82 0.0
05 19:35 NW 12 G 17 7.00 Fair CLR 51.8 19 27% 29.82 0.0
05 19:15 N 9 10.00 Fair CLR 52.3 20.1 28% 29.81 0.0
05 18:55 N 10 4.00 Fair CLR 52.9 19.6 58.3 52.9 27% 29.81 0.0
05 18:35 N 12 7.00 Fair CLR 53.6 19 26% 29.81 0.0
05 18:15 NW 9 10.00 Fair CLR 54 19 25% 29.8 0.0
05 17:55 NW 8 10.00 Fair CLR 54.5 19 25% 29.81 0.0
05 17:35 NW 14 G 20 7.00 Fair CLR 54.5 18.5 24% 29.81 0.0
05 17:15 NW 15 G 18 10.00 Fair CLR 55 18.7 24% 29.8 0.0
05 16:55 NW 13 G 21 10.00 Fair CLR 55.8 18.7 23% 29.81 0.0
05 16:35 NW 15 G 20 10.00 Fair CLR 57.2 19 22% 29.8 0.0
05 16:15 W 14 G 23 10.00 Fair CLR 57.6 17.6 21% 29.8 0.0
05 15:55 W 10 G 17 10.00 Fair CLR 57.4 17.8 21% 29.8 0.0
05 15:35 W 16 G 24 10.00 Partly Cloudy SCT070 58.3 18.9 21% 29.82 0.0
05 15:10 W 16 G 26 10.00 Fair CLR 57.2 18.7 22% 29.82 0.0
05 14:55 W 18 G 23 10.00 Partly Cloudy SCT070 57.4 17.8 21% 29.82 0.0
05 14:35 W 21 G 25 10.00 Fair and Breezy CLR 57.9 19.4 22% 29.83 0.0
05 14:15 W 10 G 22 10.00 Fair CLR 55.9 18.7 23% 29.84 0.0
05 13:55 W 16 G 26 10.00 Fair CLR 56.3 19.2 23% 29.84 0.0
05 13:35 W 13 G 20 10.00 Fair CLR 56.3 19.8 24% 29.83 0.0
05 13:15 W 16 G 23 10.00 Fair CLR 56.8 20.5 24% 29.84 0.0
05 12:55 W 13 G 23 10.00 Fair CLR 54.9 20.1 54.9 41.4 26% 29.83 0.0
05 12:35 W 12 G 20 10.00 Fair CLR 53.8 19.4 26% 29.83 0.0
05 12:15 NW 16 G 22 10.00 Fair CLR 54.5 19.8 26% 29.84 0.0
05 11:55 NW 13 G 17 10.00 Fair CLR 53.8 19.9 26% 29.84 0.0
05 11:35 NW 13 G 17 10.00 Fair CLR 52.9 19.2 27% 29.84 0.0
05 11:15 NW 12 G 22 10.00 Fair CLR 52.3 18.7 26% 29.84 0.0
05 10:55 W 12 G 21 10.00 Fair CLR 53.1 18.1 25% 29.83 0.0
05 10:35 NW 12 G 22 10.00 Fair CLR 51.3 17.2 26% 29.83 0.0
05 10:15 W 9 G 17 10.00 Fair CLR 50.9 19 28% 29.83 0.0
05 09:55 W 13 G 20 10.00 Fair CLR 51.1 17.6 26% 29.83 0.0
05 09:35 NW 12 10.00 Fair CLR 50.4 18.5 28% 29.82 0.0
05 09:15 W 8 G 16 7.00 Fair CLR 48.7 19.6 31% 46 29.82 0.0
05 08:55 NW 10 10.00 Fair CLR 48.4 19.4 32% 44 29.84 0.0
05 08:35 NW 9 10.00 Fair CLR 47.7 20.3 34% 44 29.84 0.0
05 08:10 W 10 10.00 Fair CLR 48.6 22.1 35% 45 29.84 0.0
05 07:55 W 9 10.00 Fair CLR 45.9 23.9 42% 42 29.84 0.0
05 07:35 W 7 10.00 Fair CLR 45.1 25.9 47% 42 29.84 0.0
05 07:15 Calm 10.00 Fair CLR 41.9 26.8 55% 29.83 0.0
05 06:55 Calm 10.00 Fair CLR 41.4 27.5 50 40.3 58% 29.83 0.0
05 06:35 SW 6 10.00 Fair CLR 41.2 25.5 54% 38 29.81 0.0
05 06:10 Calm 10.00 Fair CLR 41.9 23.5 48% 29.78 0.0
05 05:55 Calm 10.00 Fair CLR 41.4 23.7 50% 29.76 0.0
05 05:35 W 3 10.00 Fair CLR 40.6 23.7 51% 29.76 0.0
05 05:15 W 7 10.00 Fair CLR 41.9 24.1 49% 38 29.77 0.0
05 04:55 W 5 10.00 Fair CLR 41.9 24.3 50% 40 29.77 0.0
05 04:35 Calm 10.00 Fair CLR 44.1 22.6 43% 29.77 0.0
05 04:15 Calm 10.00 Partly Cloudy SCT120 45.3 23.2 42% 29.75 0.0
05 03:55 Calm 10.00 Fair CLR 45.7 22.8 40% 29.75 0.0
05 03:35 Calm 10.00 Fair CLR 46.4 21.9 38% 29.75 0.0
05 03:15 NW 8 10.00 Fair CLR 46.8 21.2 36% 43 29.75 0.0
05 02:55 NW 10 10.00 Fair CLR 46.9 22.1 37% 43 29.73 0.0
05 02:35 NW 10 10.00 Fair CLR 48.4 21.6 35% 44 29.7 0.0
05 02:15 NW 14 G 20 10.00 Fair CLR 49.1 21.2 33% 44 29.7 0.0
05 01:55 NW 13 G 26 10.00 Fair CLR 49.6 20.7 32% 45 29.69 0.0
05 01:35 NW 18 G 23 10.00 Fair CLR 49.6 21.4 33% 44 29.67 0.0
05 01:15 NW 13 10.00 Fair CLR 49.1 22.5 35% 45 29.67 0.0
05 00:55 NW 13 G 17 10.00 Fair CLR 49.5 23.9 67.3 49.5 37% 45 29.67 0.0
05 00:35 NW 13 G 21 10.00 Fair CLR 50.9 23.4 34% 29.67 0.0
05 00:15 NW 21 G 30 10.00 Fair and Breezy CLR 52 23.5 33% 29.65 0.0
04 23:55 NW 13 G 18 10.00 Fair CLR 52.5 25 34% 29.65 0.0
04 23:35 NW 9 10.00 Fair CLR 52.7 25.3 35% 29.65 0.0
04 23:15 NW 14 G 17 10.00 Fair CLR 53.6 25.5 34% 29.65 0.0
04 22:55 NW 16 G 23 10.00 Partly Cloudy SCT120 55.4 24.3 30% 29.65 0.0
04 22:35 NW 14 G 20 10.00 Fair CLR 55.8 24.1 29% 29.63 0.0
04 22:15 NW 9 10.00 Partly Cloudy SCT120 55.4 24.1 30% 29.63 0.0
04 21:55 W 10 G 16 10.00 Partly Cloudy SCT120 55.8 23.2 28% 29.62 0.0
04 21:35 W 9 10.00 Fair CLR 55.9 23.7 29% 29.61 0.0
04 21:15 NW 10 10.00 Fair CLR 57.2 23.7 27% 29.6 0.0
04 20:55 NW 9 G 17 10.00 Fair CLR 58.1 23.2 26% 29.58 0.0
04 20:35 NW 13 G 20 10.00 Fair CLR 58.8 22.6 25% 29.57 0.0
04 20:15 NW 10 10.00 Fair CLR 59.5 22.1 24% 29.55 0.0
04 19:55 NW 20 G 30 10.00 Fair CLR 61.7 20.8 21% 29.55 0.0
04 19:35 NW 20 G 29 10.00 Fair CLR 63.3 22.8 21% 29.53 0.0
04 19:15 NW 20 G 31 10.00 Fair CLR 64.8 23.5 21% 29.52 0.0
04 18:55 NW 22 G 29 10.00 Fair and Breezy CLR 67.5 24.8 81.3 67.5 20% 29.51 0.0
04 18:35 NW 21 G 28 10.00 Fair and Breezy CLR 69.1 24.1 18% 29.51 0.0
04 18:15 NW 15 G 25 10.00 Fair CLR 70.7 26.8 19% 29.5 0.0
04 17:55 NW 16 G 28 10.00 Fair CLR 71.6 25.9 18% 29.49 0.0
04 17:35 NW 16 G 26 10.00 Fair CLR 73.4 27.5 18% 29.49 0.0
04 17:15 NW 22 G 29 10.00 Fair and Breezy CLR 75.7 29.7 18% 76 29.48 0.0
04 16:55 W 14 G 26 10.00 Fair CLR 77 33.6 21% 77 29.47 0.0
04 16:35 W 17 G 26 10.00 Fair CLR 78.1 36.3 22% 78 29.46 0.0
04 16:15 W 20 G 26 10.00 Fair CLR 78.1 33.8 20% 77 29.46 0.0
04 15:55 W 23 G 35 10.00 Fair and Breezy CLR 80.8 30.4 16% 79 29.45 0.0
04 15:35 W 21 G 32 10.00 Fair and Breezy CLR 80.8 30.2 16% 79 29.46 0.0
04 15:15 SW 22 G 31 10.00 Fair and Breezy CLR 80.6 31.6 17% 79 29.46 0.0
04 14:55 W 25 G 35 10.00 Fair and Breezy CLR 80.6 30.9 16% 79 29.48 0.0
04 14:35 W 21 G 35 10.00 Fair and Breezy CLR 79.7 30.7 17% 78 29.48 0.0
04 14:15 W 21 G 31 10.00 Fair and Breezy CLR 79.7 30.9 17% 78 29.48 0.0
04 13:55 SW 23 G 32 10.00 Partly Cloudy and Breezy SCT085 79.3 31.6 18% 78 29.49 0.0
04 13:35 SW 18 G 30 10.00 Partly Cloudy SCT085 77.5 33.4 20% 77 29.49 0.0
04 13:15 W 22 G 29 10.00 Fair and Breezy CLR 78.1 32.9 19% 77 29.5 0.0
04 12:55 SW 22 G 30 10.00 Fair and Breezy CLR 77.5 31.5 77.5 48.9 19% 77 29.5 0.0
04 12:35 SW 23 G 28 10.00 Fair and Breezy CLR 76.6 32 20% 77 29.5 0.0
04 12:15 SW 25 G 30 10.00 Fair and Breezy CLR 75.4 32.2 21% 76 29.51 0.0
04 11:55 SW 24 G 29 10.00 Fair and Breezy CLR 74.8 32 21% 29.51 0.0
04 11:35 SW 23 G 31 10.00 Fair and Breezy CLR 73.8 31.8 21% 29.53 0.0
04 11:15 SW 24 G 29 10.00 Fair and Breezy CLR 73.4 30.9 21% 29.53 0.0
04 10:55 SW 18 G 28 10.00 Fair CLR 72.3 31.3 22% 29.53 0.0
04 10:35 SW 21 G 28 10.00 Fair and Breezy CLR 71.2 30.9 22% 29.54 0.0
04 10:15 SW 17 10.00 Fair CLR 70.5 31.3 23% 29.55 0.0
04 09:55 SW 17 10.00 Fair CLR 69.8 31.6 24% 29.55 0.0
04 09:35 SW 16 G 22 10.00 Fair CLR 68.4 31.1 25% 29.56 0.0
04 09:15 SW 14 10.00 Fair CLR 66.2 32 28% 29.57 0.0
04 08:55 SW 13 10.00 Fair CLR 63.7 33.8 33% 29.58 0.0
04 08:35 SW 10 10.00 Fair CLR 61.5 34 36% 29.58 0.0
04 08:15 S 7 10.00 Fair CLR 58.5 35.8 43% 29.58 0.0
04 07:55 S 8 10.00 Fair CLR 55.9 34.3 44% 29.59 0.0
04 07:35 S 7 10.00 Fair CLR 53.8 34.9 49% 29.6 0.0
04 07:15 S 9 10.00 Fair CLR 51.8 34.9 53% 29.59 0.0
04 06:55 S 8 10.00 Fair CLR 48.6 34.3 53.6 44.2 58% 45 29.6 0.0
04 06:35 S 9 10.00 Fair CLR 46.6 33.8 61% 43 29.6 0.0
04 06:15 S 8 10.00 Fair CLR 45 33.3 64% 41 29.6 0.0
04 05:55 S 9 10.00 Fair CLR 44.2 33.1 65% 40 29.6 0.0
04 05:35 S 9 10.00 Fair CLR 44.2 32.9 65% 40 29.6 0.0
04 05:15 S 10 10.00 Fair CLR 44.6 33.3 65% 40 29.61 0.0
04 04:55 S 10 10.00 Fair CLR 45.3 32.9 62% 41 29.61 0.0
04 04:30 S 9 10.00 Fair CLR 46.8 32 57% 43 29.62 0.0
04 04:15 S 9 10.00 Fair CLR 47.5 31.8 55% 44 29.62 0.0
04 03:55 S 7 10.00 Fair CLR 48.2 31.5 52% 46 29.62 0.0
04 03:35 S 6 10.00 Fair CLR 48 31.6 53% 46 29.63 0.0
04 03:15 S 5 10.00 Fair CLR 46.2 32.2 58% 45 29.64 0.0
04 02:55 Calm 10.00 Fair CLR 46.8 32 57% 29.64 0.0
04 02:35 Calm 10.00 Fair CLR 46.9 32 56% 29.65 0.0
04 02:15 Calm 10.00 Fair CLR 52 29.1 42% 29.65 0.0
04 01:55 Calm 10.00 Fair CLR 53.4 29.1 39% 29.66 0.0
04 01:35 Calm 10.00 Fair CLR 51.6 30.4 44% 29.67 0.0
04 01:15 Calm 10.00 Fair CLR 51.4 30.9 46% 29.68 0.0
04 00:55 Calm 10.00 Fair CLR 53.6 30.2 70.7 52.7 41% 29.69 0.0
04 00:35 Calm 10.00 Fair CLR 52.9 30.9 43% 29.7 0.0
04 00:15 Calm 10.00 Fair CLR 53.6 30.2 41% 29.7 0.0
03 23:55 Calm 10.00 Fair CLR 55.2 28.9 37% 29.7 0.0
03 23:35 Calm 10.00 Fair CLR 55.8 28.6 35% 29.7 0.0
03 23:15 Calm 10.00 Fair CLR 55.6 28.8 36% 29.7 0.0
03 22:55 Calm 10.00 Fair CLR 56.3 28.6 35% 29.71 0.0
03 22:35 Calm 10.00 Fair CLR 57.7 29.1 34% 29.71 0.0
03 22:15 Calm 10.00 Fair CLR 56.8 29.8 36% 29.7 0.0
03 21:55 Calm 10.00 Fair CLR 58.1 29.3 33% 29.7 0.0
03 21:35 Calm 10.00 Fair CLR 59.7 28.4 30% 29.7 0.0
03 21:15 Calm 10.00 Fair CLR 60.6 28.4 29% 29.7 0.0
03 20:55 W 5 10.00 Fair CLR 60.4 28.9 30% 29.69 0.0
03 20:35 W 3 10.00 Fair CLR 62.8 28.2 27% 29.69 0.0
03 20:15 NW 5 10.00 Fair CLR 63.9 28.4 26% 29.69 0.0
03 19:55 W 5 10.00 Fair CLR 64.2 29.3 27% 29.68 0.0
03 19:35 W 6 10.00 Fair CLR 66.9 28.9 24% 29.67 0.0
03 19:15 W 8 10.00 Fair CLR 69.3 27.5 21% 29.67 0.0
03 18:55 W 9 G 18 10.00 Fair CLR 70.7 27 73.4 64.4 19% 29.67 0.0
03 18:35 W 12 10.00 Partly Cloudy SCT085 71.8 28.8 20% 29.66 0.0
03 18:15 W 10 G 18 10.00 Partly Cloudy SCT085 72.9 30.7 21% 29.66 0.0
03 17:55 NW 12 G 20 10.00 Fair CLR 73 31.5 22% 29.66 0.0
03 17:35 W 7 10.00 Fair CLR 72.9 31.8 22% 29.66 0.0
03 17:15 W 17 G 22 10.00 Fair CLR 72.9 29.7 20% 29.67 0.0
03 16:55 W 16 G 22 10.00 Fair CLR 73 30.9 21% 29.67 0.0
03 16:35 W 13 G 20 10.00 Fair CLR 72.3 31.8 22% 29.67 0.0
03 16:15 W 14 G 20 10.00 Fair CLR 72.5 31.8 22% 29.67 0.0
03 15:55 W 13 G 24 10.00 Fair CLR 72.3 32.9 23% 29.67 0.0
03 15:35 SW 14 G 21 10.00 Fair CLR 71.8 33.8 25% 29.68 0.0
03 15:15 SW 15 G 23 10.00 Fair CLR 70.5 32.9 25% 29.7 0.0
03 14:55 W 13 G 24 10.00 Fair CLR 70 34.3 27% 29.7 0.0
03 14:35 SW 14 G 18 10.00 Fair CLR 68.9 33.6 27% 29.71 0.0
03 14:15 SW 10 G 22 10.00 Fair CLR 68 34.2 29% 29.72 0.0
03 13:35 SW 17 G 25 10.00 Fair CLR 66.2 33.1 29% 29.74 0.0
03 13:15 SW 21 10.00 Fair and Breezy CLR 66.2 34.5 31% 29.74 0.0
03 12:55 SW 21 G 28 10.00 Fair and Breezy CLR 64.4 34.2 64.4 46.9 33% 29.75 0.0 0.01
03 12:35 SW 20 G 26 10.00 Fair CLR 63.5 34.2 34% 29.75 0.0
03 12:15 SW 18 G 28 10.00 Fair CLR 62.4 33.4 34% 29.76 0.0
03 11:55 SW 21 G 26 10.00 Fair and Breezy CLR 61.7 32.7 34% 29.77 0.0
03 11:35 SW 22 G 28 10.00 Fair and Breezy CLR 60.8 34 37% 29.78 0.0
03 11:15 SW 23 G 29 10.00 Partly Cloudy and Breezy SCT110 60.1 32.7 36% 29.78 0.0
03 10:55 SW 21 G 30 10.00 Partly Cloudy and Breezy SCT110 59.5 34.5 39% 29.78 0.0
03 10:35 S 21 G 29 10.00 Partly Cloudy and Breezy SCT100 SCT110 57.4 34.9 43% 29.79 0.0
03 10:15 S 28 G 32 10.00 Fair and Windy CLR 57.4 34.2 42% 29.8 0.0
03 09:55 S 18 G 25 10.00 Fair CLR 54.9 39.4 56% 29.8 0.0 0.01
03 09:35 S 16 10.00 Partly Cloudy SCT080 SCT090 53.4 40.3 61% 29.81 0.0
03 09:15 S 14 10.00 Partly Cloudy SCT085 SCT100 52 40.1 64% 29.83 0.0
03 08:55 S 15 10.00 Mostly Cloudy SCT065 BKN085 BKN100 48.4 37.6 66% 43 29.82 0.0
03 08:35 S 20 G 26 10.00 Overcast OVC065 47.3 37.4 69% 41 29.82 0.0
03 08:15 S 20 10.00 Overcast SCT030 BKN060 OVC075 47.1 39.6 75% 40 29.82 0.0
03 07:35 S 17 10.00 Overcast SCT031 BKN070 OVC080 48.4 38.3 68% 43 29.85 0.0
03 07:15 S 12 10.00 Overcast SCT031 BKN060 OVC080 49.6 39.2 67% 46 29.87 0.0
03 06:55 SW 14 G 20 10.00 Overcast SCT060 SCT070 OVC080 49.5 39.2 50.2 43.3 68% 45 29.88 0.0
03 06:35 SW 16 G 23 10.00 Overcast SCT032 SCT050 OVC090 48.9 40.5 73% 44 29.87 0.0
03 06:15 SW 14 7.00 Overcast SCT029 SCT037 OVC060 48.7 41.7 77% 44 29.88 0.0
03 05:55 SW 16 G 21 10.00 Overcast BKN060 OVC070 50 38.8 66% 45 29.89 0.0
03 05:35 SW 14 10.00 Partly Cloudy SCT080 49.3 33.1 54% 45 29.88 0.0
03 05:15 SW 12 10.00 Fair CLR 48.7 30.7 50% 44 29.88 0.0
03 04:55 SW 12 10.00 Fair CLR 49.1 28.6 45% 45 29.89 0.0
03 04:35 SW 10 10.00 Fair CLR 47.8 28.6 47% 44 29.9 0.0
03 04:15 S 10 10.00 Fair CLR 46.4 30 53% 42 29.9 0.0
03 03:55 S 8 10.00 Fair CLR 46 29.1 52% 42 29.9 0.0
03 03:35 S 8 10.00 Fair CLR 46.6 28.4 49% 43 29.9 0.0
Date Time (cdt) Wind (mph) Vis. (mi.) Weather Sky Cond. Air Dwpt Max. Min. Relative Humidity Wind Chill (°F) Heat Index (°F) altimeter (in) sea level (mb) 1 hr 3 hr 6 hr
6 hour
Temperature (ºF) Pressure Precipitation (in)